Time;durP1;ratioP1;P1;durP2;ratioP2;P2;SDS_P1;SDS_P2;PMS_P1;PMS_P2;Temp;Humidity;BMP_temperature;BMP_pressure;BME280_temperature;BME280_humidity;BME280_pressure;Samples;Min_cycle;Max_cycle;Signal;HPM_P1;HPM_P2
2023/04/17 00:00:36;;;;;;;56.38;31.17;;;;;;;8.77;100.00;102760.59;5027715;28;20030;-57
2023/04/17 00:03:02;;;;;;;56.42;30.98;;;;;;;8.64;100.00;102759.63;5027011;28;20022;-56
2023/04/17 00:05:27;;;;;;;53.33;30.77;;;;;;;8.49;100.00;102756.91;5029139;28;20036;-57
2023/04/17 00:07:56;;;;;;;51.80;29.52;;;;;;;8.56;100.00;102763.97;5026521;28;20064;-60
2023/04/17 00:10:21;;;;;;;54.07;29.40;;;;;;;8.59;100.00;102764.91;5043476;28;20029;-54
2023/04/17 00:12:46;;;;;;;51.65;28.50;;;;;;;8.66;100.00;102760.53;5034618;28;20527;-57
2023/04/17 00:15:12;;;;;;;55.97;29.27;;;;;;;8.49;100.00;102764.78;5027458;28;20456;-55
2023/04/17 00:17:37;;;;;;;49.55;28.92;;;;;;;8.49;100.00;102763.03;5028542;28;20476;-59
2023/04/17 00:20:09;;;;;;;57.13;29.48;;;;;;;8.40;100.00;102763.84;5037505;28;20033;-52
2023/04/17 00:22:35;;;;;;;62.70;30.17;;;;;;;8.40;100.00;102768.25;5046883;28;20025;-58
2023/04/17 00:25:01;;;;;;;61.95;32.20;;;;;;;8.34;100.00;102759.44;5037732;28;20112;-56
2023/04/17 00:27:26;;;;;;;57.92;30.52;;;;;;;8.46;100.00;102763.88;5027134;28;20460;-53
2023/04/17 00:29:52;;;;;;;56.35;31.02;;;;;;;8.45;100.00;102763.88;5026732;28;20068;-57
2023/04/17 00:32:17;;;;;;;60.28;31.50;;;;;;;8.33;100.00;102762.06;5026305;28;20033;-58
2023/04/17 00:34:42;;;;;;;71.13;32.90;;;;;;;8.33;100.00;102762.94;5026673;28;20087;-52
2023/04/17 00:37:08;;;;;;;75.13;34.72;;;;;;;8.25;100.00;102766.38;5026868;28;20091;-55
2023/04/17 00:39:33;;;;;;;69.05;33.83;;;;;;;8.14;100.00;102761.06;5026233;28;20087;-54
2023/04/17 00:41:58;;;;;;;78.28;35.40;;;;;;;8.23;100.00;102755.88;5026982;28;20037;-58
2023/04/17 00:44:24;;;;;;;78.70;36.83;;;;;;;8.32;100.00;102766.44;5034644;28;20033;-55
2023/04/17 00:46:49;;;;;;;72.47;35.97;;;;;;;8.36;100.00;102764.69;5046588;28;20498;-53
2023/04/17 00:49:15;;;;;;;73.72;33.92;;;;;;;8.28;100.00;102759.38;5037483;28;20033;-55
2023/04/17 00:51:40;;;;;;;84.30;36.20;;;;;;;8.19;100.00;102759.34;5046718;28;20483;-61
2023/04/17 00:54:06;;;;;;;73.93;34.25;;;;;;;8.12;100.00;102754.94;5043839;28;20072;-56
2023/04/17 00:56:31;;;;;;;77.32;35.03;;;;;;;8.17;100.00;102761.97;5027733;28;20022;-57
2023/04/17 00:58:58;;;;;;;78.28;35.28;;;;;;;8.19;100.00;102754.09;5026912;28;20091;-60
2023/04/17 01:01:23;;;;;;;66.88;32.05;;;;;;;8.16;100.00;102752.31;5046435;28;20037;-59
2023/04/17 01:03:49;;;;;;;64.63;30.45;;;;;;;8.23;100.00;102758.50;5046780;28;20091;-54
2023/04/17 01:06:15;;;;;;;63.72;31.17;;;;;;;8.09;100.00;102761.91;5030002;28;20481;-56
2023/04/17 01:08:42;;;;;;;67.57;30.80;;;;;;;8.18;100.00;102768.97;5026577;28;20057;-58
2023/04/17 01:11:08;;;;;;;61.90;29.67;;;;;;;8.24;100.00;102762.88;5026571;28;20067;-58
2023/04/17 01:13:34;;;;;;;62.60;30.60;;;;;;;8.24;100.00;102759.38;5009295;28;20037;-61
2023/04/17 01:15:59;;;;;;;61.40;28.98;;;;;;;8.33;100.00;102762.94;5041139;28;20024;-55
2023/04/17 01:18:24;;;;;;;54.47;28.70;;;;;;;8.24;100.00;102762.88;5046060;28;20024;-53
2023/04/17 01:20:50;;;;;;;62.88;29.95;;;;;;;7.97;100.00;102759.16;5034154;28;20116;-58
2023/04/17 01:23:15;;;;;;;61.85;28.92;;;;;;;8.09;100.00;102775.03;5025911;28;20056;-59
2023/04/17 01:25:41;;;;;;;60.00;29.20;;;;;;;8.11;100.00;102766.28;5026577;28;20029;-57
2023/04/17 01:28:06;;;;;;;67.65;30.85;;;;;;;8.10;100.00;102768.03;5026958;28;20029;-52
2023/04/17 01:30:31;;;;;;;61.72;28.60;;;;;;;8.03;100.00;102767.09;5031959;28;20152;-58
2023/04/17 01:32:57;;;;;;;58.95;31.75;;;;;;;8.15;100.00;102765.44;5047105;28;20025;-55
2023/04/17 01:35:22;;;;;;;67.32;32.88;;;;;;;8.27;100.00;102765.53;5041932;28;20060;-55
2023/04/17 01:37:47;;;;;;;70.40;31.88;;;;;;;8.17;100.00;102771.56;5025929;28;20029;-57
2023/04/17 01:40:13;;;;;;;64.80;32.33;;;;;;;8.15;100.00;102770.69;5025723;28;20037;-58
2023/04/17 01:42:38;;;;;;;74.97;33.53;;;;;;;8.03;100.00;102767.09;5026079;28;20053;-54
2023/04/17 01:45:04;;;;;;;64.38;30.10;;;;;;;8.10;100.00;102760.16;5025880;28;20029;-55
2023/04/17 01:47:30;;;;;;;58.15;29.65;;;;;;;8.09;100.00;102764.53;5027464;28;20056;-56
2023/04/17 01:49:55;;;;;;;59.53;28.88;;;;;;;8.08;100.00;102765.41;5026760;28;20065;-53
2023/04/17 01:52:20;;;;;;;49.50;26.23;;;;;;;8.16;100.00;102764.56;5025525;28;20033;-56
2023/04/17 01:54:46;;;;;;;60.35;27.73;;;;;;;8.08;100.00;102757.53;5027033;28;20028;-60
2023/04/17 01:57:11;;;;;;;54.30;27.38;;;;;;;8.02;100.00;102761.84;5026255;28;20083;-58
2023/04/17 01:59:36;;;;;;;55.47;27.73;;;;;;;8.07;100.00;102761.00;5026639;28;20033;-55
2023/04/17 02:02:02;;;;;;;60.90;28.70;;;;;;;8.05;100.00;102762.75;5024846;28;20037;-58
2023/04/17 02:04:27;;;;;;;59.25;28.58;;;;;;;8.07;100.00;102761.00;5027075;28;20030;-58
2023/04/17 02:06:52;;;;;;;57.65;27.88;;;;;;;8.00;100.00;102756.56;5027605;28;20128;-57
2023/04/17 02:09:18;;;;;;;56.08;28.33;;;;;;;8.11;100.00;102764.53;5046484;28;20032;-54
2023/04/17 02:11:43;;;;;;;52.78;28.10;;;;;;;7.93;100.00;102754.78;5044612;28;20052;-56
2023/04/17 02:14:08;;;;;;;62.97;28.85;;;;;;;7.92;100.00;102751.25;5026319;28;20156;-60
2023/04/17 02:16:34;;;;;;;56.75;28.05;;;;;;;8.06;100.00;102758.34;5026065;28;20391;-59
2023/04/17 02:18:59;;;;;;;62.63;28.10;;;;;;;7.93;100.00;102757.41;5043948;28;20186;-58
2023/04/17 02:21:26;;;;;;;58.00;27.85;;;;;;;8.04;100.00;102765.38;5046123;28;20116;-62
2023/04/17 02:23:52;;;;;;;56.50;27.73;;;;;;;8.05;100.00;102762.75;5032358;28;20063;-55
2023/04/17 02:26:17;;;;;;;52.90;26.48;;;;;;;8.09;100.00;102759.28;5030621;28;20081;-58
2023/04/17 02:28:44;;;;;;;49.45;25.05;;;;;;;8.09;100.00;102759.28;5040829;28;20100;-57
2023/04/17 02:31:10;;;;;;;55.45;25.75;;;;;;;8.11;100.00;102755.78;5044321;28;20033;-56
2023/04/17 02:33:38;;;;;;;49.33;24.60;;;;;;;8.00;100.00;102753.09;5030461;28;20034;-57
2023/04/17 02:36:05;;;;;;;43.03;23.08;;;;;;;8.18;100.00;102754.94;5029647;28;20013;-56
2023/04/17 02:38:30;;;;;;;43.95;23.15;;;;;;;8.15;100.00;102755.81;5030329;28;20104;-60
2023/04/17 02:40:59;;;;;;;40.25;22.55;;;;;;;8.11;100.00;102755.78;5030349;28;20128;-60
2023/04/17 02:43:24;;;;;;;40.22;22.27;;;;;;;8.22;100.00;102751.50;5030750;28;20021;-59
2023/04/17 02:45:50;;;;;;;49.03;23.45;;;;;;;8.12;100.00;102758.41;5029954;28;20040;-55
2023/04/17 02:48:16;;;;;;;44.70;23.55;;;;;;;8.27;100.00;102759.38;5047696;28;20399;-54
2023/04/17 02:50:41;;;;;;;42.22;22.02;;;;;;;8.22;100.00;102760.22;5049594;28;20045;-57
2023/04/17 02:53:06;;;;;;;41.75;21.92;;;;;;;8.15;100.00;102750.56;5033800;28;20035;-57
2023/04/17 02:55:32;;;;;;;39.78;20.88;;;;;;;8.21;100.00;102749.72;5030403;28;20036;-57
2023/04/17 02:57:57;;;;;;;46.85;22.58;;;;;;;8.18;100.00;102760.19;5030610;28;20113;-55
2023/04/17 03:00:23;;;;;;;40.35;20.40;;;;;;;8.13;100.00;102754.03;5029634;28;20064;-59
2023/04/17 03:02:48;;;;;;;40.05;21.40;;;;;;;8.18;100.00;102753.22;5037007;28;20479;-57
2023/04/17 03:05:14;;;;;;;41.85;21.90;;;;;;;8.14;100.00;102745.28;5031672;28;20040;-56
2023/04/17 03:07:40;;;;;;;43.38;22.75;;;;;;;8.05;100.00;102754.00;5042496;28;20099;-59
2023/04/17 03:10:07;;;;;;;42.63;22.05;;;;;;;8.08;100.00;102756.63;5028715;28;20033;-59
2023/04/17 03:12:32;;;;;;;45.75;23.35;;;;;;;8.07;100.00;102757.50;5031027;28;20494;-58
2023/04/17 03:14:57;;;;;;;39.85;21.48;;;;;;;8.12;100.00;102754.94;5049742;28;20056;-56
2023/04/17 03:17:23;;;;;;;39.60;22.48;;;;;;;8.05;100.00;102757.50;5048536;28;20039;-56
2023/04/17 03:19:48;;;;;;;40.30;22.35;;;;;;;8.00;100.00;102755.72;5029416;28;20120;-55
2023/04/17 03:22:14;;;;;;;49.60;24.40;;;;;;;8.09;100.00;102754.03;5032377;28;20044;-55
2023/04/17 03:24:40;;;;;;;47.38;22.73;;;;;;;7.94;100.00;102756.50;5046666;28;20083;-54
2023/04/17 03:27:05;;;;;;;43.17;23.42;;;;;;;8.14;100.00;102753.16;5030296;28;20033;-52
2023/04/17 03:29:30;;;;;;;45.22;23.30;;;;;;;8.15;100.00;102753.19;5047925;28;20053;-60
2023/04/17 03:31:56;;;;;;;42.42;23.52;;;;;;;8.01;100.00;102754.84;5049828;28;20094;-56
2023/04/17 03:34:22;;;;;;;45.28;23.38;;;;;;;8.17;100.00;102755.81;5036298;28;20033;-57
2023/04/17 03:36:47;;;;;;;41.05;21.88;;;;;;;8.14;100.00;102750.53;5047774;28;20036;-57
2023/04/17 03:39:13;;;;;;;37.47;21.25;;;;;;;8.11;100.00;102754.03;5046158;28;20025;-54
2023/04/17 03:41:38;;;;;;;41.67;21.73;;;;;;;8.29;100.00;102753.28;5049081;28;20495;-60
2023/04/17 03:44:04;;;;;;;41.90;21.52;;;;;;;8.21;100.00;102755.84;5047808;28;20048;-55
2023/04/17 03:46:30;;;;;;;40.13;21.45;;;;;;;8.36;100.00;102761.22;5029424;28;20025;-55
2023/04/17 03:48:55;;;;;;;40.17;21.88;;;;;;;8.31;100.00;102758.56;5039640;28;20032;-56
2023/04/17 03:51:21;;;;;;;34.95;20.10;;;;;;;8.32;100.00;102758.56;5042347;28;20052;-59
2023/04/17 03:53:46;;;;;;;36.15;19.33;;;;;;;8.36;100.00;102759.44;5045179;28;20021;-56
2023/04/17 03:56:12;;;;;;;36.63;20.35;;;;;;;8.36;100.00;102764.69;5042911;28;20049;-55
2023/04/17 03:58:37;;;;;;;40.22;21.27;;;;;;;8.24;100.00;102755.00;5048393;28;20114;-57
2023/04/17 04:01:02;;;;;;;38.08;21.55;;;;;;;8.14;100.00;102750.53;5047356;28;20503;-57
2023/04/17 04:03:28;;;;;;;39.25;20.45;;;;;;;8.29;100.00;102761.16;5037102;28;20021;-57
2023/04/17 04:05:53;;;;;;;43.67;21.95;;;;;;;8.27;100.00;102765.53;5048546;28;20025;-57
2023/04/17 04:08:19;;;;;;;36.88;20.48;;;;;;;8.33;100.00;102762.06;5047626;28;20112;-57
2023/04/17 04:10:45;;;;;;;41.08;20.80;;;;;;;8.15;100.00;102754.91;5036771;28;20040;-58
2023/04/17 04:13:13;;;;;;;31.15;19.20;;;;;;;8.11;100.00;102761.91;5041767;28;20021;-58
2023/04/17 04:15:39;;;;;;;44.25;20.45;;;;;;;8.02;100.00;102754.84;5040137;28;20025;-55
2023/04/17 04:18:04;;;;;;;42.15;20.42;;;;;;;8.01;100.00;102760.09;5042990;28;20083;-57
2023/04/17 04:20:30;;;;;;;39.95;21.40;;;;;;;8.04;100.00;102758.34;5041228;28;20017;-57
2023/04/17 04:22:58;;;;;;;33.88;19.15;;;;;;;8.25;100.00;102764.63;5047873;28;20033;-55
2023/04/17 04:25:24;;;;;;;41.40;21.42;;;;;;;8.23;100.00;102761.13;5040691;28;20033;-55
2023/04/17 04:27:50;;;;;;;36.45;21.10;;;;;;;8.18;100.00;102763.72;5043312;28;20025;-54
2023/04/17 04:30:15;;;;;;;38.08;20.17;;;;;;;8.24;100.00;102765.50;5047702;28;20025;-56
2023/04/17 04:32:44;;;;;;;39.10;20.88;;;;;;;8.14;100.00;102758.41;5048378;28;20021;-59
2023/04/17 04:35:10;;;;;;;39.25;20.98;;;;;;;8.01;100.00;102767.97;5031634;28;20029;-59
2023/04/17 04:37:35;;;;;;;40.42;21.45;;;;;;;7.99;100.00;102765.31;5009044;28;20017;-58
2023/04/17 04:40:01;;;;;;;40.40;21.40;;;;;;;8.21;100.00;102770.72;5037238;28;20127;-60
2023/04/17 04:42:29;;;;;;;45.70;23.27;;;;;;;8.15;100.00;102773.31;5047134;28;20545;-56
2023/04/17 04:44:54;;;;;;;40.35;21.30;;;;;;;8.14;100.00;102779.44;5020598;28;20121;-54
2023/04/17 04:47:20;;;;;;;38.90;21.48;;;;;;;8.33;100.00;102777.81;5028009;28;20116;-58
2023/04/17 04:49:46;;;;;;;40.55;22.13;;;;;;;8.25;100.00;102777.75;5038007;28;20028;-56
2023/04/17 04:52:11;;;;;;;43.25;24.08;;;;;;;8.17;100.00;102785.59;5047248;28;20098;-55
2023/04/17 04:54:36;;;;;;;44.17;23.70;;;;;;;8.28;100.00;102783.03;5039589;28;20033;-55
2023/04/17 04:57:02;;;;;;;41.08;21.30;;;;;;;8.22;100.00;102785.63;5027471;28;20037;-57
2023/04/17 04:59:27;;;;;;;37.22;21.40;;;;;;;8.25;100.00;102788.25;5027411;28;20021;-55
2023/04/17 05:01:52;;;;;;;43.42;22.73;;;;;;;8.16;100.00;102780.34;5040228;28;20028;-55
2023/04/17 05:04:18;;;;;;;43.13;21.80;;;;;;;8.20;100.00;102787.34;5046245;28;20021;-55
2023/04/17 05:06:43;;;;;;;38.90;22.05;;;;;;;8.16;100.00;102793.47;5045020;28;20090;-57
2023/04/17 05:09:08;;;;;;;38.35;20.85;;;;;;;8.27;100.00;102789.16;5047378;28;20037;-59
2023/04/17 05:11:34;;;;;;;35.13;20.63;;;;;;;8.28;100.00;102793.53;5038449;28;20387;-56
2023/04/17 05:13:59;;;;;;;36.67;20.38;;;;;;;8.37;100.00;102799.75;5027412;28;20034;-57
2023/04/17 05:16:25;;;;;;;36.10;20.63;;;;;;;8.36;100.00;102795.38;5031302;28;20057;-54
2023/04/17 05:18:50;;;;;;;36.67;19.77;;;;;;;8.16;100.00;102798.72;5044016;28;20029;-54
2023/04/17 05:21:15;;;;;;;33.88;19.95;;;;;;;8.26;100.00;102800.53;5044810;28;20064;-58
2023/04/17 05:23:41;;;;;;;39.05;20.25;;;;;;;8.38;100.00;102806.75;5044069;28;20094;-54
2023/04/17 05:26:06;;;;;;;34.20;20.30;;;;;;;8.28;100.00;102806.66;5037076;28;20063;-55
2023/04/17 05:28:31;;;;;;;35.08;20.45;;;;;;;8.17;100.00;102809.22;5037648;28;20028;-55
2023/04/17 05:30:57;;;;;;;36.58;20.30;;;;;;;8.27;100.00;102810.16;5035975;28;20581;-60
2023/04/17 05:33:22;;;;;;;30.67;19.15;;;;;;;8.47;100.00;102812.06;5034257;28;20425;-59
2023/04/17 05:35:48;;;;;;;34.20;19.90;;;;;;;8.44;100.00;102809.41;5036967;28;20021;-52
2023/04/17 05:38:13;;;;;;;34.92;20.52;;;;;;;8.48;100.00;102811.19;5032578;28;20034;-51
2023/04/17 05:40:38;;;;;;;30.55;20.05;;;;;;;8.50;100.00;102812.09;5025890;28;20085;-57
2023/04/17 05:43:07;;;;;;;38.55;20.15;;;;;;;8.57;100.00;102813.03;5022943;28;20099;-58
2023/04/17 05:45:32;;;;;;;35.80;20.80;;;;;;;8.54;100.00;102816.53;5026160;28;20456;-56
2023/04/17 05:47:57;;;;;;;36.60;20.10;;;;;;;8.59;100.00;102811.31;5025605;28;20076;-56
2023/04/17 05:50:22;;;;;;;33.58;20.88;;;;;;;8.49;100.00;102810.31;5017741;28;20467;-55
2023/04/17 05:52:48;;;;;;;31.77;18.92;;;;;;;8.55;100.00;102810.38;5035446;28;20522;-57
2023/04/17 05:55:13;;;;;;;39.63;20.92;;;;;;;8.50;100.00;102812.09;5022022;28;20510;-56
2023/04/17 05:57:39;;;;;;;37.30;21.85;;;;;;;8.44;100.00;102812.94;5039133;28;20098;-54
2023/04/17 06:00:09;;;;;;;38.47;21.35;;;;;;;8.66;100.00;102817.47;5037030;28;20025;-56
2023/04/17 06:02:36;;;;;;;36.00;20.33;;;;;;;8.70;100.00;102811.38;5029501;28;20032;-53
2023/04/17 06:05:05;;;;;;;37.63;20.02;;;;;;;8.74;100.00;102814.88;5032700;28;20068;-56
2023/04/17 06:07:32;;;;;;;35.00;21.25;;;;;;;9.00;100.00;102808.88;5047503;28;20049;-57
2023/04/17 06:09:57;;;;;;;34.17;20.77;;;;;;;8.95;100.00;102815.00;5049578;28;20021;-58
2023/04/17 06:12:22;;;;;;;36.22;20.13;;;;;;;9.09;100.00;102822.06;5049462;28;20029;-55
2023/04/17 06:14:48;;;;;;;32.67;19.02;;;;;;;9.06;100.00;102820.31;5048030;28;20217;-57
2023/04/17 06:17:13;;;;;;;30.80;19.15;;;;;;;8.98;100.00;102822.03;5048655;28;20025;-55
2023/04/17 06:19:38;;;;;;;29.80;18.80;;;;;;;8.93;100.00;102827.25;5048504;28;20027;-58
2023/04/17 06:22:04;;;;;;;33.28;20.17;;;;;;;8.97;100.00;102825.50;5028773;28;20030;-55
2023/04/17 06:24:29;;;;;;;32.85;19.98;;;;;;;8.98;100.00;102825.53;5028639;28;20444;-56
2023/04/17 06:26:55;;;;;;;31.33;18.45;;;;;;;9.15;100.00;102823.84;5042828;28;20036;-57
2023/04/17 06:29:20;;;;;;;32.17;18.30;;;;;;;9.19;100.00;102826.50;5038430;28;20068;-56
2023/04/17 06:31:46;;;;;;;35.33;19.85;;;;;;;9.23;100.00;102824.75;5043927;28;20036;-55
2023/04/17 06:34:11;;;;;;;34.42;19.67;;;;;;;9.30;100.00;102825.66;5038086;28;20057;-53
2023/04/17 06:36:37;;;;;;;31.63;19.38;;;;;;;9.46;100.00;102823.97;5031742;28;20029;-60
2023/04/17 06:39:03;;;;;;;30.58;18.45;;;;;;;9.32;100.00;102835.31;5044627;28;20388;-58
2023/04/17 06:41:28;;;;;;;32.38;20.33;;;;;;;9.15;100.00;102834.38;5034236;28;20032;-52
2023/04/17 06:43:53;;;;;;;32.97;19.90;;;;;;;9.26;100.00;102837.91;5028678;28;20033;-56
2023/04/17 06:46:20;;;;;;;33.65;19.63;;;;;;;9.54;100.00;102845.91;5027954;28;20431;-57
2023/04/17 06:48:47;;;;;;;33.67;20.13;;;;;;;9.39;100.00;102851.13;5046578;28;20025;-59
2023/04/17 06:51:12;;;;;;;35.92;19.48;;;;;;;9.32;100.00;102851.09;5037642;28;20083;-58
2023/04/17 06:53:38;;;;;;;31.60;19.55;;;;;;;9.17;100.00;102854.53;5046046;28;20024;-58
2023/04/17 06:56:03;;;;;;;37.85;19.77;;;;;;;9.09;100.00;102854.50;5047679;28;20031;-54
2023/04/17 06:58:29;;;;;;;36.13;21.00;;;;;;;9.25;100.00;102854.59;5046537;28;20025;-56
2023/04/17 07:00:54;;;;;;;39.78;20.45;;;;;;;9.50;100.00;102869.56;5048216;28;20036;-57
2023/04/17 07:03:20;;;;;;;34.50;20.70;;;;;;;9.54;100.00;102869.59;5039132;28;20406;-54
2023/04/17 07:05:45;;;;;;;37.17;21.08;;;;;;;9.45;100.00;102873.06;5035646;28;20017;-53
2023/04/17 07:08:11;;;;;;;35.80;20.65;;;;;;;9.39;100.00;102877.44;5037993;28;20029;-56
2023/04/17 07:10:36;;;;;;;33.13;20.38;;;;;;;9.35;100.00;102863.38;5036642;28;20041;-60
2023/04/17 07:13:02;;;;;;;34.33;20.73;;;;;;;9.53;100.00;102880.09;5035865;28;20609;-60
2023/04/17 07:15:29;;;;;;;34.67;20.80;;;;;;;9.45;100.00;102874.84;5036642;28;20064;-55
2023/04/17 07:17:54;;;;;;;31.73;19.73;;;;;;;9.50;100.00;102872.19;5035001;28;20013;-57
2023/04/17 07:20:20;;;;;;;35.55;21.13;;;;;;;9.59;100.00;102882.75;5015550;28;20041;-56
2023/04/17 07:22:46;;;;;;;35.78;20.33;;;;;;;9.64;100.00;102877.50;5035680;28;20078;-55
2023/04/17 07:25:11;;;;;;;35.35;20.95;;;;;;;9.80;100.00;102868.78;5030678;28;20037;-56
2023/04/17 07:27:38;;;;;;;35.83;21.73;;;;;;;9.61;100.00;102873.13;5034714;28;20075;-55
2023/04/17 07:30:06;;;;;;;34.08;21.13;;;;;;;9.30;100.00;102873.88;5039678;28;20033;-58
2023/04/17 07:32:31;;;;;;;33.95;21.33;;;;;;;9.45;100.00;102880.09;5038505;28;20112;-57
2023/04/17 07:34:56;;;;;;;35.97;21.75;;;;;;;9.27;100.00;102867.75;5035401;28;20111;-56
2023/04/17 07:37:22;;;;;;;37.83;22.55;;;;;;;9.40;100.00;102872.19;5036600;28;20060;-54
2023/04/17 07:39:49;;;;;;;45.38;21.67;;;;;;;9.55;100.00;102881.91;5038770;28;20048;-56
2023/04/17 07:42:15;;;;;;;37.58;21.63;;;;;;;9.55;100.00;102881.91;5036470;28;20481;-55
2023/04/17 07:44:40;;;;;;;38.45;22.05;;;;;;;9.41;100.00;102888.84;5024802;28;20025;-56
2023/04/17 07:47:06;;;;;;;39.13;22.15;;;;;;;9.37;100.00;102879.19;5012041;28;20022;-55
2023/04/17 07:49:31;;;;;;;39.35;22.25;;;;;;;9.34;100.00;102875.66;5031312;28;20496;-58
2023/04/17 07:51:57;;;;;;;37.65;21.50;;;;;;;9.36;100.00;102878.28;5040214;28;20171;-58
2023/04/17 07:54:22;;;;;;;36.25;22.55;;;;;;;9.25;100.00;102880.91;5036960;28;20395;-52
2023/04/17 07:56:48;;;;;;;46.95;23.90;;;;;;;9.33;100.00;102881.78;5042020;28;20570;-53
2023/04/17 07:59:15;;;;;;;36.58;21.85;;;;;;;9.61;100.00;102884.53;5034544;28;20503;-59
2023/04/17 08:01:40;;;;;;;37.35;23.17;;;;;;;9.54;100.00;102877.47;5036163;28;20021;-58
2023/04/17 08:04:05;;;;;;;40.28;23.98;;;;;;;9.59;100.00;102888.03;5036212;28;20030;-54
2023/04/17 08:06:31;;;;;;;38.55;22.20;;;;;;;9.66;100.00;102875.78;5035422;28;20216;-57
2023/04/17 08:08:58;;;;;;;37.83;23.02;;;;;;;9.64;100.00;102885.41;5032782;28;20022;-56
2023/04/17 08:11:24;;;;;;;35.63;20.75;;;;;;;9.70;100.00;102888.94;5035313;28;20032;-57
2023/04/17 08:13:49;;;;;;;48.30;23.50;;;;;;;9.98;100.00;102888.13;5040734;28;20028;-57
2023/04/17 08:16:15;;;;;;;38.75;21.42;;;;;;;9.90;100.00;102890.72;5039804;28;20112;-56
2023/04/17 08:18:40;;;;;;;37.60;22.35;;;;;;;10.17;100.00;102885.53;5036311;28;20017;-51
2023/04/17 08:21:07;;;;;;;36.28;20.63;;;;;;;10.18;100.00;102885.50;5034012;28;20097;-58
2023/04/17 08:23:32;;;;;;;41.47;22.88;;;;;;;10.00;100.00;102881.13;5033720;28;20021;-57
2023/04/17 08:25:57;;;;;;;39.33;22.65;;;;;;;10.11;100.00;102884.63;5036539;28;20040;-54
2023/04/17 08:28:23;;;;;;;37.22;21.88;;;;;;;10.09;100.00;102890.78;5034692;28;20048;-57
2023/04/17 08:30:49;;;;;;;43.88;22.88;;;;;;;10.09;100.00;102883.75;5034973;28;20392;-55
2023/04/17 08:33:17;;;;;;;39.83;23.15;;;;;;;10.29;100.00;102893.41;5035850;28;20100;-57
2023/04/17 08:35:42;;;;;;;44.95;23.45;;;;;;;10.33;100.00;102889.03;5033649;28;20029;-55
2023/04/17 08:38:09;;;;;;;52.60;22.15;;;;;;;10.17;100.00;102888.16;5029878;28;20372;-53
2023/04/17 08:40:34;;;;;;;42.35;24.75;;;;;;;10.18;100.00;102884.63;5033962;28;20044;-56
2023/04/17 08:43:01;;;;;;;38.58;23.55;;;;;;;10.46;100.00;102887.31;5032440;28;20365;-60
2023/04/17 08:45:26;;;;;;;40.17;22.63;;;;;;;10.59;100.00;102881.16;5036177;28;20026;-58
2023/04/17 08:47:51;;;;;;;38.92;22.30;;;;;;;10.38;100.00;102882.00;5032884;28;20036;-59
2023/04/17 08:50:18;;;;;;;36.58;20.98;;;;;;;10.47;100.00;102886.41;5029407;28;20030;-52
2023/04/17 08:52:49;;;;;;;34.50;20.88;;;;;;;10.42;100.00;102888.16;5033290;28;20523;-57
2023/04/17 08:55:19;;;;;;;33.47;20.95;;;;;;;10.55;100.00;102895.22;5045065;28;20043;-56
2023/04/17 08:58:02;;;;;;;32.75;21.45;;;;;;;10.79;100.00;102887.25;5046176;28;20029;-56
2023/04/17 09:00:30;;;;;;;35.63;19.42;;;;;;;10.97;100.00;102891.63;5045883;28;20029;-59
2023/04/17 09:02:57;;;;;;;35.88;22.45;;;;;;;11.01;100.00;102898.63;5040499;28;20037;-63
2023/04/17 09:05:24;;;;;;;33.20;21.77;;;;;;;11.22;100.00;102895.06;5038378;28;20089;-61
2023/04/17 09:07:50;;;;;;;33.42;21.25;;;;;;;11.29;100.00;102895.03;5026553;28;20132;-59
2023/04/17 09:10:15;;;;;;;37.85;21.65;;;;;;;11.29;100.00;102898.53;5027334;28;20107;-61
2023/04/17 09:12:58;;;;;;;37.55;21.83;;;;;;;11.32;100.00;102901.16;5046389;28;20036;-62
2023/04/17 09:15:23;;;;;;;34.72;19.92;;;;;;;11.28;100.00;102904.72;5036468;28;20029;-56
2023/04/17 09:17:48;;;;;;;32.28;20.95;;;;;;;11.23;100.00;102909.16;5037262;28;20522;-58
2023/04/17 09:20:16;;;;;;;31.58;21.02;;;;;;;11.35;100.00;102906.44;5037098;28;20104;-60
2023/04/17 09:22:41;;;;;;;34.67;20.98;;;;;;;11.38;100.00;102914.34;5041010;28;20379;-57
2023/04/17 09:25:19;;;;;;;36.10;20.58;;;;;;;11.06;100.00;102911.81;5016000;28;20017;-60
2023/04/17 09:27:45;;;;;;;34.28;21.23;;;;;;;10.95;100.00;102910.09;5029535;28;20033;-60
2023/04/17 09:30:12;;;;;;;33.83;19.38;;;;;;;11.29;100.00;102906.47;5033986;28;20029;-62
2023/04/17 09:32:39;;;;;;;36.17;19.92;;;;;;;11.50;100.00;102913.41;5034615;28;20051;-59
2023/04/17 09:35:05;;;;;;;31.45;19.40;;;;;;;11.95;100.00;102903.53;5024271;28;20066;-59
2023/04/17 09:37:47;;;;;;;30.23;17.83;;;;;;;12.18;100.00;102908.66;5030227;28;20088;-62
2023/04/17 09:40:13;;;;;;;27.13;18.17;;;;;;;12.20;100.00;102908.66;5023645;28;20125;-59
2023/04/17 09:42:55;;;;;;;28.70;18.25;;;;;;;12.28;100.00;102908.59;5037761;28;20112;-57
2023/04/17 09:45:21;;;;;;;27.58;18.17;;;;;;;12.03;100.00;102908.72;5035763;28;20072;-59
2023/04/17 09:47:46;;;;;;;30.35;17.85;;;;;;;12.23;100.00;102906.00;5027708;28;20061;-54
2023/04/17 09:50:20;;;;;;;30.60;18.40;;;;;;;12.27;100.00;102913.00;5033164;28;20448;-55
2023/04/17 09:52:48;;;;;;;31.15;19.13;;;;;;;12.04;100.00;102908.72;5036187;28;20499;-55
2023/04/17 09:55:15;;;;;;;30.60;17.30;;;;;;;11.96;100.00;102915.84;5044107;28;20025;-62
2023/04/17 09:57:41;;;;;;;35.75;17.42;;;;;;;11.53;100.00;102917.81;5034399;28;20053;-57
2023/04/17 10:00:12;;;;;;;27.15;18.15;;;;;;;11.53;100.00;102920.44;5032829;28;20494;-63
2023/04/17 10:02:38;;;;;;;26.40;17.42;;;;;;;11.81;100.00;102924.72;5031873;28;20036;-61
2023/04/17 10:05:07;;;;;;;29.00;16.60;;;;;;;11.73;100.00;102922.13;5034196;28;20017;-56
2023/04/17 10:07:35;;;;;;;;;;;;;;;11.98;100.00;102928.13;5032045;28;20068;-59
2023/04/17 10:10:02;;;;;;;24.88;15.48;;;;;;;11.94;100.00;102917.59;5035625;28;19913;-62
2023/04/17 10:12:27;;;;;;;24.95;16.67;;;;;;;12.03;100.00;102921.94;5031276;28;20047;-60
2023/04/17 10:14:53;;;;;;;23.88;15.05;;;;;;;12.55;100.00;102915.41;5032127;28;20488;-59
2023/04/17 10:17:27;;;;;;;24.83;16.05;;;;;;;12.58;100.00;102914.53;5032353;28;20028;-59
2023/04/17 10:19:53;;;;;;;35.72;15.75;;;;;;;13.00;100.00;102911.44;5035095;28;20045;-61
2023/04/17 10:22:18;;;;;;;23.77;14.32;;;;;;;13.21;100.00;102920.03;5031811;28;20025;-59
2023/04/17 10:24:51;;;;;;;22.77;15.35;;;;;;;13.10;100.00;102917.53;5026699;28;20548;-59
2023/04/17 10:27:25;;;;;;;22.80;15.93;;;;;;;13.16;100.00;102924.50;5024529;28;20033;-57
2023/04/17 10:29:51;;;;;;;24.92;15.80;;;;;;;12.99;100.00;102920.28;5045575;28;20033;-55
2023/04/17 10:32:16;;;;;;;26.98;15.35;;;;;;;13.07;100.00;102917.56;5044936;28;20037;-60
2023/04/17 10:34:41;;;;;;;26.08;16.20;;;;;;;13.27;100.00;102918.19;5008816;28;20037;-60
2023/04/17 10:37:07;;;;;;;23.08;15.77;;;;;;;13.78;100.00;102921.09;5025073;28;20033;-60
2023/04/17 10:39:50;;;;;;;23.67;15.55;;;;;;;13.69;100.00;102922.13;5033710;28;20374;-55
2023/04/17 10:42:17;;;;;;;25.40;15.32;;;;;;;13.72;100.00;102915.88;5036363;28;20029;-58
2023/04/17 10:44:44;;;;;;;25.25;16.40;;;;;;;14.43;100.00;102913.94;5036911;28;20414;-56
2023/04/17 10:47:13;;;;;;;23.02;15.27;;;;;;;14.16;100.00;102916.13;5037828;28;20629;-61
2023/04/17 10:49:58;;;;;;;23.27;15.90;;;;;;;13.18;100.00;102915.66;5039338;28;20100;-59
2023/04/17 10:52:39;;;;;;;25.02;16.55;;;;;;;12.92;100.00;102922.13;5042577;28;20048;-58
2023/04/17 10:55:05;;;;;;;23.65;15.93;;;;;;;13.11;100.00;102917.50;5049691;28;20029;-56
2023/04/17 10:57:49;;;;;;;20.77;15.45;;;;;;;13.36;100.00;102909.25;5049469;28;20027;-59
2023/04/17 11:00:15;;;;;;;20.17;14.05;;;;;;;13.49;100.00;102904.72;5029704;28;20483;-61
2023/04/17 11:02:44;;;;;;;20.50;14.48;;;;;;;13.61;100.00;102903.66;5028464;28;20029;-57